Nenana Municipal Airport Nenana US
ICAO: PANN
IATA:
Category: Medium
Scheduled Services:

Elevation: 362 ft
TransAlt. 18000 ft.

Airport Communications:
FAIRBANKS APP/DEP:125.35
ASOS:125.2
CTAF:122.1
FAIRBANKS RDO:122.5
TWEB:115.8

PANN Zoom In..

If Map Doesn't Load, Click Here

Runways:

(A) RW 04L length 4600 ft width 100 ft
---- / hdg 38

(B) RW 04R length 2520 ft width 60 ft
---- / hdg 38

(C) RW 22L length 2520 ft width 60 ft
---- / hdg 218

(D) RW 22R length 4600 ft width 100 ft
---- / hdg 218

Location; PANN
Day. 23 / Time. 21.39 Zulu
* Altimeter: 29.70
* Temperature: 11° c. 51.8°f.
* Wind from: 250° Speed 05 kn.
Dewpoint: 08° c.
Visibility: 9 Statute Miles.
Clouds: Scattered 1600 ft.
Clouds: Broken 2100 ft.
Clouds: Overcast 4200 ft.

PANN 232139Z AUTO 25005KT 9SM SCT016 BKN021 OVC042 11/08 A2970 RMK AO2 RAE11 P0000 T01060083 TSNO $


Wind From 250°
Speed 05 kn.

 
 
jpsmedia.com for Web Design worldairports.se 2018   terms of use